sensor_id;sensor_type;location;lat;lon;timestamp;P1;durP1;ratioP1;P2;durP2;ratioP2
23222;SDS011;11780;13.904;100.620;2023-12-20T00:00:54;27.92;;;18.88;;
23222;SDS011;11780;13.904;100.620;2023-12-20T00:04:06;28.80;;;19.30;;
23222;SDS011;11780;13.904;100.620;2023-12-20T00:06:37;29.87;;;20.17;;
23222;SDS011;11780;13.904;100.620;2023-12-20T00:09:08;28.73;;;18.60;;
23222;SDS011;11780;13.904;100.620;2023-12-20T00:11:38;30.47;;;19.03;;
23222;SDS011;11780;13.904;100.620;2023-12-20T00:14:11;27.38;;;18.75;;
23222;SDS011;11780;13.904;100.620;2023-12-20T00:16:41;28.20;;;19.60;;
23222;SDS011;11780;13.904;100.620;2023-12-20T00:19:46;26.97;;;19.17;;
23222;SDS011;11780;13.904;100.620;2023-12-20T00:22:09;26.58;;;18.67;;
23222;SDS011;11780;13.904;100.620;2023-12-20T00:24:42;25.55;;;18.45;;
23222;SDS011;11780;13.904;100.620;2023-12-20T00:27:17;26.67;;;18.58;;
23222;SDS011;11780;13.904;100.620;2023-12-20T00:30:20;28.67;;;18.55;;
23222;SDS011;11780;13.904;100.620;2023-12-20T00:32:50;29.43;;;19.20;;
23222;SDS011;11780;13.904;100.620;2023-12-20T00:35:21;27.73;;;18.40;;
23222;SDS011;11780;13.904;100.620;2023-12-20T00:37:52;28.03;;;19.23;;
23222;SDS011;11780;13.904;100.620;2023-12-20T00:40:22;22.23;;;17.30;;
23222;SDS011;11780;13.904;100.620;2023-12-20T00:42:53;25.00;;;17.13;;
23222;SDS011;11780;13.904;100.620;2023-12-20T00:45:24;20.17;;;17.43;;
23222;SDS011;11780;13.904;100.620;2023-12-20T00:47:55;23.70;;;17.07;;
23222;SDS011;11780;13.904;100.620;2023-12-20T00:50:25;24.73;;;18.60;;
23222;SDS011;11780;13.904;100.620;2023-12-20T00:55:30;25.80;;;18.27;;
23222;SDS011;11780;13.904;100.620;2023-12-20T00:58:01;25.67;;;18.27;;
23222;SDS011;11780;13.904;100.620;2023-12-20T01:00:31;22.70;;;16.90;;
23222;SDS011;11780;13.904;100.620;2023-12-20T01:03:02;20.25;;;15.38;;
23222;SDS011;11780;13.904;100.620;2023-12-20T01:08:53;21.48;;;14.93;;
23222;SDS011;11780;13.904;100.620;2023-12-20T01:11:23;20.17;;;15.43;;
23222;SDS011;11780;13.904;100.620;2023-12-20T01:13:54;19.67;;;15.47;;
23222;SDS011;11780;13.904;100.620;2023-12-20T01:16:24;20.77;;;15.15;;
23222;SDS011;11780;13.904;100.620;2023-12-20T01:18:58;19.00;;;13.63;;
23222;SDS011;11780;13.904;100.620;2023-12-20T01:22:05;17.23;;;13.38;;
23222;SDS011;11780;13.904;100.620;2023-12-20T01:24:35;19.33;;;13.67;;
23222;SDS011;11780;13.904;100.620;2023-12-20T01:27:06;15.33;;;11.57;;
23222;SDS011;11780;13.904;100.620;2023-12-20T01:29:37;15.47;;;11.07;;
23222;SDS011;11780;13.904;100.620;2023-12-20T01:32:17;14.68;;;11.38;;
23222;SDS011;11780;13.904;100.620;2023-12-20T01:35:01;13.25;;;11.23;;
23222;SDS011;11780;13.904;100.620;2023-12-20T01:37:32;13.70;;;11.38;;
23222;SDS011;11780;13.904;100.620;2023-12-20T01:40:03;13.37;;;11.23;;
23222;SDS011;11780;13.904;100.620;2023-12-20T01:42:34;16.05;;;11.30;;
23222;SDS011;11780;13.904;100.620;2023-12-20T01:45:05;14.97;;;11.13;;
23222;SDS011;11780;13.904;100.620;2023-12-20T01:47:35;12.73;;;11.13;;
23222;SDS011;11780;13.904;100.620;2023-12-20T01:50:06;13.17;;;10.50;;
23222;SDS011;11780;13.904;100.620;2023-12-20T01:52:38;15.68;;;10.52;;
23222;SDS011;11780;13.904;100.620;2023-12-20T01:55:12;15.65;;;10.57;;
23222;SDS011;11780;13.904;100.620;2023-12-20T01:57:45;12.73;;;9.82;;
23222;SDS011;11780;13.904;100.620;2023-12-20T02:00:17;12.10;;;9.30;;
23222;SDS011;11780;13.904;100.620;2023-12-20T02:02:53;10.63;;;8.23;;
23222;SDS011;11780;13.904;100.620;2023-12-20T02:05:31;13.07;;;9.77;;
23222;SDS011;11780;13.904;100.620;2023-12-20T02:08:06;15.65;;;9.73;;
23222;SDS011;11780;13.904;100.620;2023-12-20T02:10:57;13.25;;;9.15;;
23222;SDS011;11780;13.904;100.620;2023-12-20T02:13:27;10.87;;;8.60;;
23222;SDS011;11780;13.904;100.620;2023-12-20T02:15:58;13.93;;;9.93;;
23222;SDS011;11780;13.904;100.620;2023-12-20T02:18:29;13.60;;;8.65;;
23222;SDS011;11780;13.904;100.620;2023-12-20T02:24:23;13.10;;;8.98;;
23222;SDS011;11780;13.904;100.620;2023-12-20T02:26:54;13.23;;;9.23;;
23222;SDS011;11780;13.904;100.620;2023-12-20T02:29:24;17.43;;;9.00;;
23222;SDS011;11780;13.904;100.620;2023-12-20T02:31:56;13.73;;;10.07;;
23222;SDS011;11780;13.904;100.620;2023-12-20T02:37:56;15.25;;;9.40;;
23222;SDS011;11780;13.904;100.620;2023-12-20T02:40:27;14.27;;;9.13;;
23222;SDS011;11780;13.904;100.620;2023-12-20T02:42:57;17.00;;;9.67;;
23222;SDS011;11780;13.904;100.620;2023-12-20T02:45:28;13.90;;;9.17;;
23222;SDS011;11780;13.904;100.620;2023-12-20T02:47:59;15.63;;;9.75;;
23222;SDS011;11780;13.904;100.620;2023-12-20T02:50:29;13.57;;;8.93;;
23222;SDS011;11780;13.904;100.620;2023-12-20T02:53:00;16.33;;;10.17;;
23222;SDS011;11780;13.904;100.620;2023-12-20T02:55:38;16.75;;;10.25;;
23222;SDS011;11780;13.904;100.620;2023-12-20T02:58:09;18.52;;;13.80;;
23222;SDS011;11780;13.904;100.620;2023-12-20T03:00:39;17.37;;;11.77;;
23222;SDS011;11780;13.904;100.620;2023-12-20T03:03:10;17.60;;;11.00;;
23222;SDS011;11780;13.904;100.620;2023-12-20T03:08:54;15.30;;;11.02;;
23222;SDS011;11780;13.904;100.620;2023-12-20T03:11:27;16.03;;;11.37;;
23222;SDS011;11780;13.904;100.620;2023-12-20T03:13:58;15.30;;;11.07;;
23222;SDS011;11780;13.904;100.620;2023-12-20T03:16:28;14.63;;;11.10;;
23222;SDS011;11780;13.904;100.620;2023-12-20T03:22:20;14.73;;;10.57;;
23222;SDS011;11780;13.904;100.620;2023-12-20T03:24:51;13.25;;;10.18;;
23222;SDS011;11780;13.904;100.620;2023-12-20T03:27:22;17.35;;;10.23;;
23222;SDS011;11780;13.904;100.620;2023-12-20T03:29:52;15.23;;;10.33;;
23222;SDS011;11780;13.904;100.620;2023-12-20T03:35:32;12.70;;;9.85;;
23222;SDS011;11780;13.904;100.620;2023-12-20T03:38:02;10.77;;;9.47;;
23222;SDS011;11780;13.904;100.620;2023-12-20T03:40:33;14.93;;;11.10;;
23222;SDS011;11780;13.904;100.620;2023-12-20T03:43:04;16.87;;;12.13;;
23222;SDS011;11780;13.904;100.620;2023-12-20T03:45:34;16.67;;;12.15;;
23222;SDS011;11780;13.904;100.620;2023-12-20T03:48:36;16.38;;;13.13;;
23222;SDS011;11780;13.904;100.620;2023-12-20T03:51:06;17.45;;;11.70;;
23222;SDS011;11780;13.904;100.620;2023-12-20T03:53:37;20.33;;;13.13;;
23222;SDS011;11780;13.904;100.620;2023-12-20T03:56:09;17.52;;;13.02;;
23222;SDS011;11780;13.904;100.620;2023-12-20T03:58:39;22.40;;;14.63;;
23222;SDS011;11780;13.904;100.620;2023-12-20T04:01:10;26.77;;;15.97;;
23222;SDS011;11780;13.904;100.620;2023-12-20T04:03:47;22.55;;;15.68;;
23222;SDS011;11780;13.904;100.620;2023-12-20T04:06:47;19.75;;;15.23;;
23222;SDS011;11780;13.904;100.620;2023-12-20T04:09:18;24.90;;;13.67;;
23222;SDS011;11780;13.904;100.620;2023-12-20T04:11:48;26.02;;;15.70;;
23222;SDS011;11780;13.904;100.620;2023-12-20T04:14:19;19.23;;;14.40;;
23222;SDS011;11780;13.904;100.620;2023-12-20T04:16:53;17.33;;;14.37;;
23222;SDS011;11780;13.904;100.620;2023-12-20T04:19:39;22.23;;;14.20;;
23222;SDS011;11780;13.904;100.620;2023-12-20T04:22:10;19.52;;;12.98;;
23222;SDS011;11780;13.904;100.620;2023-12-20T04:24:41;24.80;;;13.77;;
23222;SDS011;11780;13.904;100.620;2023-12-20T04:27:14;16.98;;;12.02;;
23222;SDS011;11780;13.904;100.620;2023-12-20T04:29:44;16.90;;;11.60;;
23222;SDS011;11780;13.904;100.620;2023-12-20T04:32:33;15.68;;;10.18;;
23222;SDS011;11780;13.904;100.620;2023-12-20T04:35:04;14.50;;;10.33;;
23222;SDS011;11780;13.904;100.620;2023-12-20T04:37:35;17.63;;;10.15;;
23222;SDS011;11780;13.904;100.620;2023-12-20T04:40:06;14.67;;;9.27;;
23222;SDS011;11780;13.904;100.620;2023-12-20T04:42:37;12.07;;;8.88;;
23222;SDS011;11780;13.904;100.620;2023-12-20T04:45:08;14.50;;;9.27;;
23222;SDS011;11780;13.904;100.620;2023-12-20T04:47:39;14.57;;;8.77;;
23222;SDS011;11780;13.904;100.620;2023-12-20T04:50:11;12.48;;;8.77;;
23222;SDS011;11780;13.904;100.620;2023-12-20T04:55:12;15.35;;;9.13;;
23222;SDS011;11780;13.904;100.620;2023-12-20T04:57:43;14.10;;;9.25;;
23222;SDS011;11780;13.904;100.620;2023-12-20T05:00:14;12.20;;;9.25;;
23222;SDS011;11780;13.904;100.620;2023-12-20T05:02:45;13.63;;;9.55;;
23222;SDS011;11780;13.904;100.620;2023-12-20T05:05:16;15.63;;;8.67;;
23222;SDS011;11780;13.904;100.620;2023-12-20T05:07:47;13.32;;;8.65;;
23222;SDS011;11780;13.904;100.620;2023-12-20T05:10:18;12.53;;;8.40;;
23222;SDS011;11780;13.904;100.620;2023-12-20T05:12:48;15.30;;;8.87;;
23222;SDS011;11780;13.904;100.620;2023-12-20T05:15:19;13.10;;;8.23;;
23222;SDS011;11780;13.904;100.620;2023-12-20T05:17:49;16.33;;;8.23;;
23222;SDS011;11780;13.904;100.620;2023-12-20T05:20:20;12.17;;;7.57;;
23222;SDS011;11780;13.904;100.620;2023-12-20T05:22:51;11.45;;;7.53;;
23222;SDS011;11780;13.904;100.620;2023-12-20T05:25:21;14.53;;;8.07;;
23222;SDS011;11780;13.904;100.620;2023-12-20T05:27:52;16.23;;;7.45;;
23222;SDS011;11780;13.904;100.620;2023-12-20T05:30:23;11.23;;;7.37;;
23222;SDS011;11780;13.904;100.620;2023-12-20T05:32:53;12.20;;;7.63;;
23222;SDS011;11780;13.904;100.620;2023-12-20T05:35:24;14.90;;;7.65;;
23222;SDS011;11780;13.904;100.620;2023-12-20T05:37:55;9.93;;;7.30;;
23222;SDS011;11780;13.904;100.620;2023-12-20T05:40:25;13.63;;;7.57;;
23222;SDS011;11780;13.904;100.620;2023-12-20T05:42:56;12.17;;;7.13;;
23222;SDS011;11780;13.904;100.620;2023-12-20T05:45:26;11.37;;;7.60;;
23222;SDS011;11780;13.904;100.620;2023-12-20T05:47:57;12.37;;;7.07;;
23222;SDS011;11780;13.904;100.620;2023-12-20T05:50:28;8.63;;;6.82;;
23222;SDS011;11780;13.904;100.620;2023-12-20T05:52:58;12.23;;;7.67;;
23222;SDS011;11780;13.904;100.620;2023-12-20T05:55:29;9.70;;;7.60;;
23222;SDS011;11780;13.904;100.620;2023-12-20T05:57:59;11.00;;;7.35;;
23222;SDS011;11780;13.904;100.620;2023-12-20T06:00:30;14.67;;;7.00;;
23222;SDS011;11780;13.904;100.620;2023-12-20T06:03:00;8.40;;;7.13;;
23222;SDS011;11780;13.904;100.620;2023-12-20T06:05:31;10.63;;;7.37;;
23222;SDS011;11780;13.904;100.620;2023-12-20T06:08:02;10.85;;;7.32;;
23222;SDS011;11780;13.904;100.620;2023-12-20T06:10:33;10.77;;;7.10;;
23222;SDS011;11780;13.904;100.620;2023-12-20T06:13:03;9.60;;;7.03;;
23222;SDS011;11780;13.904;100.620;2023-12-20T06:15:36;11.98;;;7.35;;
23222;SDS011;11780;13.904;100.620;2023-12-20T06:18:06;10.07;;;7.20;;
23222;SDS011;11780;13.904;100.620;2023-12-20T06:20:37;8.87;;;7.10;;
23222;SDS011;11780;13.904;100.620;2023-12-20T06:23:07;12.27;;;7.07;;
23222;SDS011;11780;13.904;100.620;2023-12-20T06:25:38;12.87;;;6.73;;
23222;SDS011;11780;13.904;100.620;2023-12-20T06:28:09;10.40;;;7.00;;
23222;SDS011;11780;13.904;100.620;2023-12-20T06:30:40;10.85;;;6.88;;
23222;SDS011;11780;13.904;100.620;2023-12-20T06:33:11;10.98;;;6.43;;
23222;SDS011;11780;13.904;100.620;2023-12-20T06:35:43;11.93;;;6.57;;
23222;SDS011;11780;13.904;100.620;2023-12-20T06:38:13;10.93;;;6.93;;
23222;SDS011;11780;13.904;100.620;2023-12-20T06:40:44;10.20;;;6.00;;
23222;SDS011;11780;13.904;100.620;2023-12-20T06:43:15;10.25;;;6.03;;
23222;SDS011;11780;13.904;100.620;2023-12-20T06:46:05;10.82;;;6.97;;
23222;SDS011;11780;13.904;100.620;2023-12-20T06:48:36;8.82;;;6.50;;
23222;SDS011;11780;13.904;100.620;2023-12-20T06:51:10;13.80;;;7.03;;
23222;SDS011;11780;13.904;100.620;2023-12-20T06:53:42;10.65;;;6.57;;
23222;SDS011;11780;13.904;100.620;2023-12-20T06:56:13;12.35;;;6.93;;
23222;SDS011;11780;13.904;100.620;2023-12-20T06:58:46;10.23;;;6.85;;
23222;SDS011;11780;13.904;100.620;2023-12-20T07:01:17;10.60;;;7.35;;
23222;SDS011;11780;13.904;100.620;2023-12-20T07:03:47;8.55;;;6.22;;
23222;SDS011;11780;13.904;100.620;2023-12-20T07:06:18;11.80;;;6.40;;
23222;SDS011;11780;13.904;100.620;2023-12-20T07:08:52;11.27;;;6.70;;
23222;SDS011;11780;13.904;100.620;2023-12-20T07:11:22;8.98;;;5.65;;
23222;SDS011;11780;13.904;100.620;2023-12-20T07:13:53;7.78;;;6.15;;
23222;SDS011;11780;13.904;100.620;2023-12-20T07:16:24;10.27;;;6.33;;
23222;SDS011;11780;13.904;100.620;2023-12-20T07:18:54;15.23;;;6.07;;
23222;SDS011;11780;13.904;100.620;2023-12-20T07:21:28;11.32;;;6.13;;
23222;SDS011;11780;13.904;100.620;2023-12-20T07:23:58;11.63;;;5.72;;
23222;SDS011;11780;13.904;100.620;2023-12-20T07:26:29;7.82;;;5.65;;
23222;SDS011;11780;13.904;100.620;2023-12-20T07:28:59;8.23;;;5.70;;
23222;SDS011;11780;13.904;100.620;2023-12-20T07:31:30;10.13;;;6.03;;
23222;SDS011;11780;13.904;100.620;2023-12-20T07:34:01;7.97;;;5.50;;
23222;SDS011;11780;13.904;100.620;2023-12-20T07:36:32;7.33;;;5.70;;
23222;SDS011;11780;13.904;100.620;2023-12-20T07:39:02;6.53;;;5.03;;
23222;SDS011;11780;13.904;100.620;2023-12-20T07:41:33;12.30;;;5.70;;
23222;SDS011;11780;13.904;100.620;2023-12-20T07:44:04;10.10;;;5.60;;
23222;SDS011;11780;13.904;100.620;2023-12-20T07:46:36;7.40;;;5.80;;
23222;SDS011;11780;13.904;100.620;2023-12-20T07:49:06;11.10;;;5.23;;
23222;SDS011;11780;13.904;100.620;2023-12-20T07:51:38;7.05;;;5.38;;
23222;SDS011;11780;13.904;100.620;2023-12-20T07:54:08;8.00;;;5.30;;
23222;SDS011;11780;13.904;100.620;2023-12-20T07:56:39;6.93;;;5.95;;
23222;SDS011;11780;13.904;100.620;2023-12-20T07:59:09;7.57;;;5.23;;
23222;SDS011;11780;13.904;100.620;2023-12-20T08:01:51;6.15;;;4.93;;
23222;SDS011;11780;13.904;100.620;2023-12-20T08:04:22;7.28;;;5.35;;
23222;SDS011;11780;13.904;100.620;2023-12-20T08:06:53;7.90;;;4.90;;
23222;SDS011;11780;13.904;100.620;2023-12-20T08:09:23;9.52;;;5.20;;
23222;SDS011;11780;13.904;100.620;2023-12-20T08:11:54;7.10;;;4.77;;
23222;SDS011;11780;13.904;100.620;2023-12-20T08:14:25;10.75;;;5.65;;
23222;SDS011;11780;13.904;100.620;2023-12-20T08:16:56;7.90;;;5.07;;
23222;SDS011;11780;13.904;100.620;2023-12-20T08:19:26;10.03;;;5.80;;
23222;SDS011;11780;13.904;100.620;2023-12-20T08:21:57;7.30;;;4.93;;
23222;SDS011;11780;13.904;100.620;2023-12-20T08:24:28;6.57;;;4.60;;
23222;SDS011;11780;13.904;100.620;2023-12-20T08:26:59;7.43;;;5.07;;
23222;SDS011;11780;13.904;100.620;2023-12-20T08:29:30;8.50;;;5.73;;
23222;SDS011;11780;13.904;100.620;2023-12-20T08:32:01;5.40;;;4.88;;
23222;SDS011;11780;13.904;100.620;2023-12-20T08:34:32;6.80;;;5.72;;
23222;SDS011;11780;13.904;100.620;2023-12-20T08:37:03;6.15;;;5.32;;
23222;SDS011;11780;13.904;100.620;2023-12-20T08:39:33;5.50;;;4.97;;
23222;SDS011;11780;13.904;100.620;2023-12-20T08:42:04;8.68;;;5.97;;
23222;SDS011;11780;13.904;100.620;2023-12-20T08:44:35;7.63;;;5.60;;
23222;SDS011;11780;13.904;100.620;2023-12-20T08:47:05;6.63;;;5.38;;
23222;SDS011;11780;13.904;100.620;2023-12-20T08:49:36;7.57;;;5.70;;
23222;SDS011;11780;13.904;100.620;2023-12-20T08:52:08;9.00;;;6.82;;
23222;SDS011;11780;13.904;100.620;2023-12-20T08:54:39;7.47;;;5.50;;
23222;SDS011;11780;13.904;100.620;2023-12-20T08:57:11;5.78;;;4.97;;
23222;SDS011;11780;13.904;100.620;2023-12-20T08:59:42;8.95;;;6.70;;
23222;SDS011;11780;13.904;100.620;2023-12-20T09:02:13;8.47;;;6.53;;
23222;SDS011;11780;13.904;100.620;2023-12-20T09:04:45;6.93;;;6.22;;
23222;SDS011;11780;13.904;100.620;2023-12-20T09:07:25;9.40;;;6.63;;
23222;SDS011;11780;13.904;100.620;2023-12-20T09:09:56;8.37;;;6.60;;
23222;SDS011;11780;13.904;100.620;2023-12-20T09:12:27;8.65;;;6.40;;
23222;SDS011;11780;13.904;100.620;2023-12-20T09:14:57;8.80;;;6.73;;
23222;SDS011;11780;13.904;100.620;2023-12-20T09:17:28;9.27;;;6.23;;
23222;SDS011;11780;13.904;100.620;2023-12-20T09:20:02;7.97;;;5.55;;
23222;SDS011;11780;13.904;100.620;2023-12-20T09:22:36;6.90;;;6.20;;
23222;SDS011;11780;13.904;100.620;2023-12-20T09:25:08;7.95;;;5.88;;
23222;SDS011;11780;13.904;100.620;2023-12-20T09:27:40;7.25;;;6.35;;
23222;SDS011;11780;13.904;100.620;2023-12-20T09:30:12;8.80;;;6.05;;
23222;SDS011;11780;13.904;100.620;2023-12-20T09:32:54;7.82;;;5.78;;
23222;SDS011;11780;13.904;100.620;2023-12-20T09:35:25;11.13;;;5.72;;
23222;SDS011;11780;13.904;100.620;2023-12-20T09:37:56;7.78;;;6.45;;
23222;SDS011;11780;13.904;100.620;2023-12-20T09:40:26;9.02;;;5.88;;
23222;SDS011;11780;13.904;100.620;2023-12-20T09:43:03;10.30;;;5.78;;
23222;SDS011;11780;13.904;100.620;2023-12-20T09:45:35;9.65;;;6.20;;
23222;SDS011;11780;13.904;100.620;2023-12-20T09:50:37;9.83;;;6.07;;
23222;SDS011;11780;13.904;100.620;2023-12-20T09:53:08;6.30;;;5.57;;
23222;SDS011;11780;13.904;100.620;2023-12-20T09:55:42;4.72;;;4.32;;
23222;SDS011;11780;13.904;100.620;2023-12-20T09:58:12;11.60;;;6.23;;
23222;SDS011;11780;13.904;100.620;2023-12-20T10:00:43;6.82;;;6.13;;
23222;SDS011;11780;13.904;100.620;2023-12-20T10:03:14;7.13;;;6.20;;
23222;SDS011;11780;13.904;100.620;2023-12-20T10:08:18;7.35;;;6.28;;
23222;SDS011;11780;13.904;100.620;2023-12-20T10:10:52;8.75;;;6.18;;
23222;SDS011;11780;13.904;100.620;2023-12-20T10:13:23;9.45;;;5.82;;
23222;SDS011;11780;13.904;100.620;2023-12-20T10:15:54;8.10;;;5.72;;
23222;SDS011;11780;13.904;100.620;2023-12-20T10:18:25;10.20;;;5.70;;
23222;SDS011;11780;13.904;100.620;2023-12-20T10:21:06;8.93;;;6.43;;
23222;SDS011;11780;13.904;100.620;2023-12-20T10:23:41;5.47;;;4.90;;
23222;SDS011;11780;13.904;100.620;2023-12-20T10:26:27;7.60;;;6.20;;
23222;SDS011;11780;13.904;100.620;2023-12-20T10:29:01;10.10;;;6.40;;
23222;SDS011;11780;13.904;100.620;2023-12-20T10:31:34;11.70;;;5.90;;
23222;SDS011;11780;13.904;100.620;2023-12-20T10:34:06;7.20;;;6.20;;
23222;SDS011;11780;13.904;100.620;2023-12-20T10:36:36;8.23;;;6.40;;
23222;SDS011;11780;13.904;100.620;2023-12-20T10:39:07;8.00;;;6.00;;
23222;SDS011;11780;13.904;100.620;2023-12-20T10:41:40;8.82;;;6.57;;
23222;SDS011;11780;13.904;100.620;2023-12-20T10:44:13;7.57;;;5.88;;
23222;SDS011;11780;13.904;100.620;2023-12-20T10:46:45;5.70;;;5.03;;
23222;SDS011;11780;13.904;100.620;2023-12-20T10:49:20;7.45;;;6.63;;
23222;SDS011;11780;13.904;100.620;2023-12-20T10:51:52;8.27;;;6.35;;
23222;SDS011;11780;13.904;100.620;2023-12-20T10:54:27;9.27;;;6.00;;
23222;SDS011;11780;13.904;100.620;2023-12-20T10:56:58;7.38;;;6.50;;
23222;SDS011;11780;13.904;100.620;2023-12-20T10:59:29;7.60;;;6.20;;
23222;SDS011;11780;13.904;100.620;2023-12-20T11:02:07;9.55;;;6.60;;
23222;SDS011;11780;13.904;100.620;2023-12-20T11:04:44;9.07;;;6.13;;
23222;SDS011;11780;13.904;100.620;2023-12-20T11:12:52;8.38;;;6.50;;
23222;SDS011;11780;13.904;100.620;2023-12-20T11:15:27;10.88;;;7.00;;
23222;SDS011;11780;13.904;100.620;2023-12-20T11:20:38;16.25;;;7.13;;
23222;SDS011;11780;13.904;100.620;2023-12-20T11:23:09;9.68;;;6.97;;
23222;SDS011;11780;13.904;100.620;2023-12-20T11:25:47;10.63;;;7.57;;
23222;SDS011;11780;13.904;100.620;2023-12-20T11:28:21;9.00;;;7.82;;
23222;SDS011;11780;13.904;100.620;2023-12-20T11:30:54;11.73;;;7.28;;
23222;SDS011;11780;13.904;100.620;2023-12-20T11:33:36;13.43;;;7.53;;
23222;SDS011;11780;13.904;100.620;2023-12-20T11:36:18;11.18;;;8.38;;
23222;SDS011;11780;13.904;100.620;2023-12-20T11:38:54;12.00;;;8.73;;
23222;SDS011;11780;13.904;100.620;2023-12-20T11:41:27;14.85;;;7.88;;
23222;SDS011;11780;13.904;100.620;2023-12-20T11:43:57;15.60;;;10.10;;
23222;SDS011;11780;13.904;100.620;2023-12-20T11:46:31;14.32;;;8.82;;
23222;SDS011;11780;13.904;100.620;2023-12-20T11:49:03;12.77;;;10.77;;
23222;SDS011;11780;13.904;100.620;2023-12-20T11:51:34;17.02;;;12.65;;
23222;SDS011;11780;13.904;100.620;2023-12-20T11:54:05;15.23;;;11.10;;
23222;SDS011;11780;13.904;100.620;2023-12-20T11:56:36;19.77;;;11.85;;
23222;SDS011;11780;13.904;100.620;2023-12-20T11:59:07;12.35;;;10.70;;
23222;SDS011;11780;13.904;100.620;2023-12-20T12:01:52;18.25;;;13.80;;
23222;SDS011;11780;13.904;100.620;2023-12-20T12:04:26;18.75;;;15.88;;
23222;SDS011;11780;13.904;100.620;2023-12-20T12:06:58;18.23;;;13.95;;
23222;SDS011;11780;13.904;100.620;2023-12-20T12:09:28;23.00;;;18.30;;
23222;SDS011;11780;13.904;100.620;2023-12-20T12:11:59;20.77;;;17.17;;
23222;SDS011;11780;13.904;100.620;2023-12-20T12:14:30;22.00;;;17.20;;
23222;SDS011;11780;13.904;100.620;2023-12-20T12:17:00;16.83;;;15.02;;
23222;SDS011;11780;13.904;100.620;2023-12-20T12:19:31;18.73;;;15.93;;
23222;SDS011;11780;13.904;100.620;2023-12-20T12:22:06;20.63;;;13.60;;
23222;SDS011;11780;13.904;100.620;2023-12-20T12:24:45;17.00;;;13.80;;
23222;SDS011;11780;13.904;100.620;2023-12-20T12:27:17;17.38;;;12.80;;
23222;SDS011;11780;13.904;100.620;2023-12-20T12:30:03;20.83;;;13.70;;
23222;SDS011;11780;13.904;100.620;2023-12-20T12:32:36;15.98;;;13.15;;
23222;SDS011;11780;13.904;100.620;2023-12-20T12:35:08;16.75;;;12.95;;
23222;SDS011;11780;13.904;100.620;2023-12-20T12:37:39;17.35;;;13.25;;
23222;SDS011;11780;13.904;100.620;2023-12-20T12:40:12;14.23;;;12.75;;
23222;SDS011;11780;13.904;100.620;2023-12-20T12:42:44;17.50;;;11.95;;
23222;SDS011;11780;13.904;100.620;2023-12-20T12:45:15;18.08;;;11.27;;
23222;SDS011;11780;13.904;100.620;2023-12-20T12:47:46;14.00;;;11.10;;
23222;SDS011;11780;13.904;100.620;2023-12-20T12:50:16;12.27;;;10.80;;
23222;SDS011;11780;13.904;100.620;2023-12-20T12:52:47;14.45;;;11.30;;
23222;SDS011;11780;13.904;100.620;2023-12-20T12:55:18;17.97;;;11.97;;
23222;SDS011;11780;13.904;100.620;2023-12-20T12:57:49;14.27;;;10.83;;
23222;SDS011;11780;13.904;100.620;2023-12-20T13:00:19;15.30;;;10.73;;
23222;SDS011;11780;13.904;100.620;2023-12-20T13:02:51;15.90;;;10.90;;
23222;SDS011;11780;13.904;100.620;2023-12-20T13:05:21;13.33;;;11.13;;
23222;SDS011;11780;13.904;100.620;2023-12-20T13:07:52;16.70;;;10.55;;
23222;SDS011;11780;13.904;100.620;2023-12-20T13:10:23;14.15;;;10.15;;
23222;SDS011;11780;13.904;100.620;2023-12-20T13:12:54;14.50;;;10.20;;
23222;SDS011;11780;13.904;100.620;2023-12-20T13:16:26;16.08;;;9.35;;
23222;SDS011;11780;13.904;100.620;2023-12-20T13:18:57;15.70;;;8.18;;
23222;SDS011;11780;13.904;100.620;2023-12-20T13:21:29;15.43;;;7.75;;
23222;SDS011;11780;13.904;100.620;2023-12-20T13:24:00;12.63;;;7.85;;
23222;SDS011;11780;13.904;100.620;2023-12-20T13:26:31;10.60;;;7.70;;
23222;SDS011;11780;13.904;100.620;2023-12-20T13:29:02;12.52;;;8.02;;
23222;SDS011;11780;13.904;100.620;2023-12-20T13:31:33;10.80;;;8.27;;
23222;SDS011;11780;13.904;100.620;2023-12-20T13:34:06;9.05;;;8.00;;
23222;SDS011;11780;13.904;100.620;2023-12-20T13:36:38;9.75;;;8.38;;
23222;SDS011;11780;13.904;100.620;2023-12-20T13:39:09;13.10;;;8.60;;
23222;SDS011;11780;13.904;100.620;2023-12-20T13:41:40;13.02;;;8.02;;
23222;SDS011;11780;13.904;100.620;2023-12-20T13:44:11;11.73;;;8.13;;
23222;SDS011;11780;13.904;100.620;2023-12-20T13:49:12;11.88;;;7.95;;
23222;SDS011;11780;13.904;100.620;2023-12-20T13:51:43;12.05;;;8.48;;
23222;SDS011;11780;13.904;100.620;2023-12-20T13:54:14;16.10;;;8.33;;
23222;SDS011;11780;13.904;100.620;2023-12-20T13:56:46;13.77;;;9.23;;
23222;SDS011;11780;13.904;100.620;2023-12-20T13:59:35;16.80;;;10.30;;
23222;SDS011;11780;13.904;100.620;2023-12-20T14:02:06;18.58;;;10.13;;
23222;SDS011;11780;13.904;100.620;2023-12-20T14:04:37;18.20;;;9.63;;
23222;SDS011;11780;13.904;100.620;2023-12-20T14:07:10;13.07;;;8.63;;
23222;SDS011;11780;13.904;100.620;2023-12-20T14:09:41;16.45;;;10.00;;
23222;SDS011;11780;13.904;100.620;2023-12-20T14:12:15;14.80;;;8.90;;
23222;SDS011;11780;13.904;100.620;2023-12-20T14:14:45;11.73;;;8.70;;
23222;SDS011;11780;13.904;100.620;2023-12-20T14:17:17;12.13;;;8.65;;
23222;SDS011;11780;13.904;100.620;2023-12-20T14:19:47;12.65;;;8.75;;
23222;SDS011;11780;13.904;100.620;2023-12-20T14:22:19;12.77;;;8.02;;
23222;SDS011;11780;13.904;100.620;2023-12-20T14:24:50;12.15;;;8.55;;
23222;SDS011;11780;13.904;100.620;2023-12-20T14:27:22;13.40;;;7.97;;
23222;SDS011;11780;13.904;100.620;2023-12-20T14:29:54;16.63;;;7.90;;
23222;SDS011;11780;13.904;100.620;2023-12-20T14:32:25;15.23;;;8.73;;
23222;SDS011;11780;13.904;100.620;2023-12-20T14:34:57;16.52;;;8.68;;
23222;SDS011;11780;13.904;100.620;2023-12-20T14:37:28;13.57;;;9.30;;
23222;SDS011;11780;13.904;100.620;2023-12-20T14:39:59;15.80;;;9.02;;
23222;SDS011;11780;13.904;100.620;2023-12-20T14:42:29;13.70;;;9.53;;
23222;SDS011;11780;13.904;100.620;2023-12-20T14:45:02;15.40;;;9.10;;
23222;SDS011;11780;13.904;100.620;2023-12-20T14:47:33;13.07;;;8.85;;
23222;SDS011;11780;13.904;100.620;2023-12-20T14:50:04;16.00;;;9.63;;
23222;SDS011;11780;13.904;100.620;2023-12-20T14:52:35;19.13;;;9.63;;
23222;SDS011;11780;13.904;100.620;2023-12-20T14:55:06;17.52;;;9.88;;
23222;SDS011;11780;13.904;100.620;2023-12-20T14:57:37;14.68;;;10.02;;
23222;SDS011;11780;13.904;100.620;2023-12-20T15:00:08;15.60;;;10.23;;
23222;SDS011;11780;13.904;100.620;2023-12-20T15:02:39;16.45;;;10.32;;
23222;SDS011;11780;13.904;100.620;2023-12-20T15:05:10;16.52;;;10.40;;
23222;SDS011;11780;13.904;100.620;2023-12-20T15:07:42;14.90;;;9.70;;
23222;SDS011;11780;13.904;100.620;2023-12-20T15:10:13;15.25;;;10.52;;
23222;SDS011;11780;13.904;100.620;2023-12-20T15:12:45;15.52;;;10.32;;
23222;SDS011;11780;13.904;100.620;2023-12-20T15:15:16;15.98;;;9.95;;
23222;SDS011;11780;13.904;100.620;2023-12-20T15:17:46;17.85;;;10.20;;
23222;SDS011;11780;13.904;100.620;2023-12-20T15:22:48;13.65;;;10.52;;